Time;durP1;ratioP1;P1;durP2;ratioP2;P2;SDS_P1;SDS_P2;PMS_P1;PMS_P2;Temp;Humidity;BMP_temperature;BMP_pressure;BME280_temperature;BME280_humidity;BME280_pressure;Samples;Min_cycle;Max_cycle;Signal;HPM_P1;HPM_P2
2024/03/12 00:00:15;;;;;;;4.32;2.65;;;9.30;99.90;;;;;;4992126;28;20034;-76
2024/03/12 00:02:45;;;;;;;7.35;2.28;;;9.30;99.90;;;;;;4992211;28;20065;-76
2024/03/12 00:05:18;;;;;;;2.78;1.60;;;9.20;99.90;;;;;;4993758;28;20033;-76
2024/03/12 00:07:44;;;;;;;2.33;1.77;;;9.30;99.90;;;;;;4992181;28;20046;-77
2024/03/12 00:10:15;;;;;;;3.30;1.92;;;9.20;99.90;;;;;;4992880;28;20069;-76
2024/03/12 00:12:43;;;;;;;3.60;1.95;;;9.20;99.90;;;;;;4992117;28;20033;-76
2024/03/12 00:15:09;;;;;;;3.75;2.17;;;9.10;99.90;;;;;;4992118;28;20093;-76
2024/03/12 00:17:36;;;;;;;3.25;2.05;;;9.20;99.90;;;;;;4991361;28;20030;-76
2024/03/12 00:20:06;;;;;;;2.83;1.92;;;9.10;99.90;;;;;;4992009;28;20045;-76
2024/03/12 00:22:33;;;;;;;2.63;1.70;;;9.10;99.90;;;;;;4991431;28;20030;-76
2024/03/12 00:25:00;;;;;;;4.70;1.75;;;9.10;99.90;;;;;;4993174;28;20046;-76
2024/03/12 00:27:25;;;;;;;3.17;1.90;;;9.10;99.90;;;;;;4992819;28;20050;-76
2024/03/12 00:29:51;;;;;;;3.08;1.60;;;9.10;99.90;;;;;;4991924;28;20023;-76
2024/03/12 00:32:18;;;;;;;2.05;1.67;;;9.10;99.90;;;;;;4991578;28;20062;-77
2024/03/12 00:34:44;;;;;;;1.42;1.27;;;9.10;99.90;;;;;;4991563;28;20447;-76
2024/03/12 00:37:12;;;;;;;2.38;1.67;;;9.00;99.90;;;;;;4993253;28;20035;-76
2024/03/12 00:39:38;;;;;;;3.63;1.60;;;9.00;99.90;;;;;;4992551;28;20487;-76
2024/03/12 00:42:06;;;;;;;3.53;2.00;;;9.00;99.90;;;;;;4993065;28;20034;-76
2024/03/12 00:44:32;;;;;;;3.35;1.50;;;9.00;99.90;;;;;;4991283;28;20125;-76
2024/03/12 00:46:57;;;;;;;2.28;1.58;;;9.00;99.90;;;;;;4991959;28;20474;-76
2024/03/12 00:49:25;;;;;;;3.42;1.70;;;9.00;99.90;;;;;;4992514;28;20031;-76
2024/03/12 00:51:51;;;;;;;4.32;1.80;;;8.90;99.90;;;;;;4991546;28;20030;-75
2024/03/12 00:54:17;;;;;;;2.55;1.48;;;8.90;99.90;;;;;;4991140;28;20030;-79
2024/03/12 00:56:43;;;;;;;7.05;1.60;;;8.90;99.90;;;;;;4995486;28;20028;-76
2024/03/12 00:59:08;;;;;;;3.35;1.70;;;8.90;99.90;;;;;;4996164;28;20034;-76
2024/03/12 01:01:34;;;;;;;2.17;1.63;;;8.90;99.90;;;;;;4996094;28;20423;-76
2024/03/12 01:04:00;;;;;;;3.45;1.63;;;8.90;99.90;;;;;;4995194;28;20034;-76
2024/03/12 01:06:28;;;;;;;2.88;1.20;;;8.90;99.90;;;;;;4994621;28;20077;-76
2024/03/12 01:08:55;;;;;;;3.08;1.50;;;8.90;99.90;;;;;;4995035;28;20022;-75
2024/03/12 01:11:21;;;;;;;3.35;1.80;;;8.90;99.90;;;;;;4994530;28;20038;-76
2024/03/12 01:13:50;;;;;;;3.15;1.80;;;8.80;99.90;;;;;;4994991;28;20022;-76
2024/03/12 01:16:17;;;;;;;4.93;1.50;;;8.80;99.90;;;;;;4994959;28;20027;-75
2024/03/12 01:18:42;;;;;;;4.18;1.50;;;8.80;99.90;;;;;;4996206;28;20027;-75
2024/03/12 01:21:08;;;;;;;3.03;1.60;;;8.80;99.90;;;;;;4994945;28;20096;-77
2024/03/12 01:23:34;;;;;;;3.65;1.98;;;8.80;99.90;;;;;;4994233;28;20134;-77
2024/03/12 01:26:00;;;;;;;2.75;1.63;;;8.70;99.90;;;;;;4994946;28;20022;-78
2024/03/12 01:28:26;;;;;;;2.42;1.60;;;8.80;99.90;;;;;;4994710;28;20529;-77
2024/03/12 01:30:53;;;;;;;4.00;1.38;;;8.70;99.90;;;;;;4994967;28;20495;-77
2024/03/12 01:33:19;;;;;;;3.13;1.48;;;8.80;99.90;;;;;;4994629;28;20463;-82
2024/03/12 01:35:46;;;;;;;2.67;1.58;;;8.70;99.90;;;;;;4995813;28;20496;-77
2024/03/12 01:38:13;;;;;;;2.25;1.40;;;8.70;99.90;;;;;;4995213;28;20109;-77
2024/03/12 01:40:41;;;;;;;2.50;1.27;;;8.70;99.90;;;;;;4994292;28;20066;-77
2024/03/12 01:43:06;;;;;;;3.08;1.60;;;8.70;99.90;;;;;;4991575;28;20027;-77
2024/03/12 01:45:33;;;;;;;2.65;1.60;;;8.60;99.90;;;;;;4976248;28;20531;-77
2024/03/12 01:48:03;;;;;;;2.45;1.60;;;8.60;99.90;;;;;;4976477;28;20380;-77
2024/03/12 01:50:31;;;;;;;2.50;1.48;;;8.60;99.90;;;;;;4974486;28;20045;-76
2024/03/12 01:52:59;;;;;;;2.25;1.52;;;8.60;99.90;;;;;;4974670;28;20086;-77
2024/03/12 01:55:25;;;;;;;3.72;1.65;;;8.60;99.90;;;;;;4974662;28;20026;-76
2024/03/12 01:57:53;;;;;;;3.17;1.50;;;8.60;99.90;;;;;;4975126;28;20030;-77
2024/03/12 02:00:20;;;;;;;3.40;2.03;;;8.50;99.90;;;;;;4974909;28;20035;-77
2024/03/12 02:02:47;;;;;;;4.40;1.77;;;8.40;99.90;;;;;;4975024;28;20031;-77
2024/03/12 02:05:13;;;;;;;3.22;1.80;;;8.40;99.90;;;;;;4975863;28;20066;-77
2024/03/12 02:07:45;;;;;;;3.08;1.70;;;8.50;99.90;;;;;;4974373;28;20034;-77
2024/03/12 02:10:11;;;;;;;3.17;1.80;;;8.50;99.90;;;;;;4974994;28;20065;-77
2024/03/12 02:12:37;;;;;;;3.50;1.73;;;8.50;99.90;;;;;;4974494;28;20391;-77
2024/03/12 02:15:04;;;;;;;3.97;1.80;;;8.50;99.90;;;;;;4975321;28;20027;-77
2024/03/12 02:17:30;;;;;;;3.05;1.77;;;8.60;99.90;;;;;;4975268;28;20019;-78
2024/03/12 02:19:57;;;;;;;4.32;1.80;;;8.60;99.90;;;;;;4976231;28;20475;-77
2024/03/12 02:22:22;;;;;;;4.15;1.90;;;8.60;99.90;;;;;;4974446;28;20031;-79
2024/03/12 02:24:50;;;;;;;2.75;1.50;;;8.70;99.90;;;;;;4975959;28;20049;-77
2024/03/12 02:27:16;;;;;;;3.85;1.80;;;8.60;99.90;;;;;;4974479;28;20081;-78
2024/03/12 02:29:44;;;;;;;5.68;2.03;;;8.70;99.90;;;;;;4975448;28;20480;-77
2024/03/12 02:32:09;;;;;;;4.25;1.63;;;8.70;99.90;;;;;;4975465;28;20050;-77
2024/03/12 02:34:35;;;;;;;3.40;1.58;;;8.80;99.90;;;;;;4973866;28;20082;-77
2024/03/12 02:37:02;;;;;;;1.92;1.55;;;8.70;99.90;;;;;;4975958;28;20035;-77
2024/03/12 02:39:30;;;;;;;2.40;1.50;;;8.70;99.90;;;;;;4975330;28;20372;-77
2024/03/12 02:41:58;;;;;;;3.05;1.67;;;8.80;99.90;;;;;;4974362;28;20388;-76
2024/03/12 02:44:24;;;;;;;4.30;1.98;;;8.80;99.90;;;;;;4974439;28;20065;-77
2024/03/12 02:46:51;;;;;;;2.60;1.75;;;8.80;99.90;;;;;;4973804;28;20055;-76
2024/03/12 02:49:18;;;;;;;3.35;1.70;;;8.80;99.90;;;;;;4974146;28;20027;-76
2024/03/12 02:51:45;;;;;;;4.50;1.83;;;8.80;99.90;;;;;;4973190;28;20034;-77
2024/03/12 02:54:15;;;;;;;4.15;1.58;;;8.90;99.90;;;;;;4973789;28;20031;-77
2024/03/12 02:56:42;;;;;;;4.97;1.95;;;8.90;99.90;;;;;;4973568;28;20034;-77
2024/03/12 02:59:11;;;;;;;3.63;1.80;;;8.90;99.90;;;;;;4973994;28;20053;-78
2024/03/12 03:01:40;;;;;;;3.10;1.80;;;8.90;99.90;;;;;;4973440;28;20038;-78
2024/03/12 03:04:08;;;;;;;2.78;1.70;;;8.90;99.90;;;;;;4973586;28;20031;-77
2024/03/12 03:06:34;;;;;;;3.05;1.83;;;8.90;99.90;;;;;;4973582;28;20399;-77
2024/03/12 03:09:00;;;;;;;3.33;1.77;;;8.90;99.90;;;;;;4973664;28;20046;-77
2024/03/12 03:11:26;;;;;;;2.85;1.60;;;8.90;99.90;;;;;;4973190;28;20473;-77
2024/03/12 03:13:52;;;;;;;2.92;1.77;;;8.90;99.90;;;;;;4974205;28;20035;-76
2024/03/12 03:16:20;;;;;;;5.72;1.98;;;8.90;99.90;;;;;;4973311;28;20082;-76
2024/03/12 03:18:46;;;;;;;2.78;1.75;;;8.90;99.90;;;;;;4973583;28;20027;-76
2024/03/12 03:21:12;;;;;;;2.95;2.05;;;8.90;99.90;;;;;;4973373;28;20045;-78
2024/03/12 03:23:41;;;;;;;2.65;1.75;;;8.90;99.90;;;;;;4974095;28;20086;-76
2024/03/12 03:26:07;;;;;;;3.45;2.28;;;9.00;99.90;;;;;;4973321;28;20027;-77
2024/03/12 03:28:33;;;;;;;3.83;1.90;;;9.00;99.90;;;;;;4972730;28;20031;-76
2024/03/12 03:30:59;;;;;;;3.15;1.80;;;8.90;99.90;;;;;;4974470;28;20038;-76
2024/03/12 03:33:25;;;;;;;3.25;1.73;;;9.00;99.90;;;;;;4973000;28;20053;-76
2024/03/12 03:35:51;;;;;;;5.22;1.80;;;8.90;99.90;;;;;;4972810;28;20051;-76
2024/03/12 03:38:18;;;;;;;2.50;1.75;;;9.00;99.90;;;;;;4973427;28;20023;-76
2024/03/12 03:40:43;;;;;;;4.10;1.80;;;9.00;99.90;;;;;;4972719;28;20038;-76
2024/03/12 03:43:09;;;;;;;3.97;2.03;;;9.00;99.90;;;;;;4974337;28;20476;-76
2024/03/12 03:45:34;;;;;;;4.10;2.15;;;9.00;99.90;;;;;;4973883;28;20069;-76
2024/03/12 03:48:00;;;;;;;2.30;1.65;;;9.00;99.90;;;;;;4973927;28;20034;-76
2024/03/12 03:50:26;;;;;;;3.60;1.85;;;9.00;99.90;;;;;;4972706;28;20043;-76
2024/03/12 03:52:52;;;;;;;2.72;1.70;;;9.00;99.90;;;;;;4973250;28;20037;-76
2024/03/12 03:55:21;;;;;;;2.00;1.50;;;9.00;99.90;;;;;;4974464;28;20475;-77
2024/03/12 03:57:49;;;;;;;6.07;2.40;;;9.00;99.90;;;;;;4972829;28;20034;-76
2024/03/12 04:00:15;;;;;;;3.83;2.00;;;8.90;99.90;;;;;;4972736;28;20031;-77
2024/03/12 04:02:43;;;;;;;3.83;1.83;;;8.90;99.90;;;;;;4972468;28;20038;-77
2024/03/12 04:05:10;;;;;;;4.18;2.20;;;8.90;99.90;;;;;;4972829;28;20368;-77
2024/03/12 04:07:35;;;;;;;3.88;1.95;;;8.80;99.90;;;;;;4973483;28;20038;-77
2024/03/12 04:10:01;;;;;;;3.35;2.30;;;8.80;99.90;;;;;;4972770;28;20030;-77
2024/03/12 04:12:28;;;;;;;2.85;1.88;;;8.80;99.90;;;;;;4972981;28;20403;-76
2024/03/12 04:14:53;;;;;;;5.03;2.40;;;8.80;99.90;;;;;;4973962;28;20069;-77
2024/03/12 04:17:19;;;;;;;2.53;1.80;;;8.80;99.90;;;;;;4972898;28;20059;-77
2024/03/12 04:19:47;;;;;;;8.35;2.70;;;8.80;99.90;;;;;;4972399;28;20069;-77
2024/03/12 04:22:16;;;;;;;2.78;2.13;;;8.70;99.90;;;;;;4972991;28;20384;-77
2024/03/12 04:24:43;;;;;;;4.03;1.90;;;8.70;99.90;;;;;;4972141;28;20050;-77
2024/03/12 04:27:14;;;;;;;4.70;2.10;;;8.70;99.90;;;;;;4974267;28;20023;-77
2024/03/12 04:29:40;;;;;;;3.50;2.17;;;8.70;99.90;;;;;;4973523;28;20038;-77
2024/03/12 04:32:06;;;;;;;3.53;2.08;;;8.60;99.90;;;;;;4976661;28;20069;-77
2024/03/12 04:34:33;;;;;;;3.83;2.38;;;8.60;99.90;;;;;;4976258;28;20059;-77
2024/03/12 04:37:00;;;;;;;3.30;2.20;;;8.60;99.90;;;;;;4976653;28;20121;-77
2024/03/12 04:39:32;;;;;;;3.83;2.17;;;8.50;99.90;;;;;;4977739;28;20022;-77
2024/03/12 04:42:04;;;;;;;3.78;2.00;;;8.50;99.90;;;;;;4976775;28;20085;-76
2024/03/12 04:44:33;;;;;;;4.03;2.20;;;8.50;99.90;;;;;;4975615;28;20107;-78
2024/03/12 04:46:59;;;;;;;4.97;2.40;;;8.50;99.90;;;;;;4977386;28;20026;-77
2024/03/12 04:49:26;;;;;;;3.65;2.40;;;8.40;99.90;;;;;;4977386;28;20023;-77
2024/03/12 04:51:52;;;;;;;2.88;2.13;;;8.40;99.90;;;;;;4976645;28;20031;-77
2024/03/12 04:54:18;;;;;;;4.88;2.00;;;8.40;99.90;;;;;;4976097;28;20027;-77
2024/03/12 04:56:45;;;;;;;3.88;2.13;;;8.40;99.90;;;;;;4975470;28;20042;-77
2024/03/12 04:59:15;;;;;;;5.22;2.13;;;8.40;99.90;;;;;;4976033;28;20023;-77
2024/03/12 05:01:45;;;;;;;3.72;1.98;;;8.40;99.90;;;;;;4975974;28;20035;-77
2024/03/12 05:04:14;;;;;;;3.95;2.30;;;8.40;99.90;;;;;;4975644;28;20093;-77
2024/03/12 05:06:40;;;;;;;6.93;2.30;;;8.30;99.90;;;;;;4975372;28;20039;-77
2024/03/12 05:09:06;;;;;;;5.65;2.40;;;8.40;99.90;;;;;;4977468;28;20361;-77
2024/03/12 05:11:32;;;;;;;3.88;2.38;;;8.30;99.90;;;;;;4975732;28;20034;-79
2024/03/12 05:13:58;;;;;;;4.57;2.50;;;8.40;99.90;;;;;;4977198;28;20030;-77
2024/03/12 05:16:25;;;;;;;5.22;2.60;;;8.40;99.90;;;;;;4976203;28;20170;-77
2024/03/12 05:18:50;;;;;;;3.40;2.22;;;8.30;99.90;;;;;;4976451;28;20031;-78
2024/03/12 05:21:16;;;;;;;4.93;2.83;;;8.30;99.90;;;;;;4975820;28;20035;-75
2024/03/12 05:23:42;;;;;;;3.72;2.30;;;8.30;99.90;;;;;;4976617;28;20037;-76
2024/03/12 05:26:08;;;;;;;4.88;2.63;;;8.30;99.90;;;;;;4976724;28;20023;-78
2024/03/12 05:28:35;;;;;;;5.35;2.83;;;8.30;99.90;;;;;;4975229;28;20069;-79
2024/03/12 05:31:01;;;;;;;4.15;2.65;;;8.30;99.90;;;;;;4975440;28;20539;-76
2024/03/12 05:33:38;;;;;;;4.40;2.40;;;8.30;99.90;;;;;;4976858;28;20035;-76
2024/03/12 05:36:09;;;;;;;4.53;2.42;;;8.30;99.90;;;;;;4957880;28;20058;-76
2024/03/12 05:38:37;;;;;;;5.60;2.67;;;8.30;99.90;;;;;;4955755;29;20365;-77
2024/03/12 05:49:11;;;;;;;4.25;2.45;;;8.30;99.90;;;;;;4957372;29;20082;-77
2024/03/12 05:51:37;;;;;;;3.55;2.13;;;8.30;99.90;;;;;;4956790;29;20042;-78
2024/03/12 05:54:06;;;;;;;3.28;2.28;;;8.30;99.90;;;;;;4957152;28;20379;-77
2024/03/12 05:56:32;;;;;;;5.78;2.50;;;8.30;99.90;;;;;;4956082;29;20224;-77
2024/03/12 05:58:58;;;;;;;5.43;2.85;;;8.30;99.90;;;;;;4956491;28;20027;-74
2024/03/12 06:01:24;;;;;;;6.93;2.55;;;8.30;99.90;;;;;;4956988;29;20038;-75
2024/03/12 06:03:53;;;;;;;3.65;2.03;;;8.30;99.90;;;;;;4956600;28;20082;-75
2024/03/12 06:06:19;;;;;;;3.00;1.98;;;8.30;99.90;;;;;;4955191;29;20031;-74
2024/03/12 06:08:45;;;;;;;5.90;2.10;;;8.30;99.90;;;;;;4956265;28;20035;-75
2024/03/12 06:11:12;;;;;;;6.97;2.42;;;8.30;99.90;;;;;;4956980;28;20113;-77
2024/03/12 06:13:38;;;;;;;3.72;2.47;;;8.30;99.90;;;;;;4954955;29;20032;-78
2024/03/12 06:16:05;;;;;;;6.70;2.30;;;8.30;99.90;;;;;;4955495;29;20050;-78
2024/03/12 06:18:30;;;;;;;3.35;2.30;;;8.30;99.90;;;;;;4956761;28;20074;-77
2024/03/12 06:20:57;;;;;;;4.82;2.50;;;8.30;99.90;;;;;;4954880;29;20134;-75
2024/03/12 06:23:23;;;;;;;4.38;2.28;;;8.30;99.90;;;;;;4955124;29;20033;-74
2024/03/12 06:25:48;;;;;;;6.20;2.67;;;8.30;99.90;;;;;;4954424;29;20035;-77
2024/03/12 06:28:14;;;;;;;4.90;2.13;;;8.30;99.90;;;;;;4955156;29;20035;-77
2024/03/12 06:30:42;;;;;;;3.08;1.92;;;8.40;99.90;;;;;;4954595;29;20556;-77
2024/03/12 06:33:09;;;;;;;4.20;2.17;;;8.40;99.90;;;;;;4954442;29;20063;-77
2024/03/12 06:35:35;;;;;;;3.17;2.03;;;8.40;99.90;;;;;;4970740;28;20054;-77
2024/03/12 06:38:04;;;;;;;5.85;2.72;;;8.40;99.90;;;;;;4974161;28;20026;-75
2024/03/12 06:40:30;;;;;;;3.20;2.15;;;8.50;99.90;;;;;;4972701;28;20468;-77
2024/03/12 06:42:59;;;;;;;5.30;2.47;;;8.40;99.90;;;;;;4973382;28;20291;-75
2024/03/12 06:45:28;;;;;;;2.65;1.95;;;8.40;99.90;;;;;;4974250;28;20045;-77
2024/03/12 06:47:55;;;;;;;3.03;1.95;;;8.40;99.90;;;;;;4972733;28;20044;-77
2024/03/12 06:50:25;;;;;;;3.22;2.28;;;8.40;99.90;;;;;;4973051;28;20046;-77
2024/03/12 06:52:51;;;;;;;3.55;2.13;;;8.50;99.90;;;;;;4971917;28;20039;-77
2024/03/12 06:55:23;;;;;;;3.20;1.88;;;8.50;99.90;;;;;;4972844;28;20443;-78
2024/03/12 06:57:52;;;;;;;4.78;2.28;;;8.50;99.90;;;;;;4972835;28;20027;-77
2024/03/12 07:00:32;;;;;;;5.82;2.00;;;8.40;99.90;;;;;;4974777;28;20448;-76
2024/03/12 07:02:59;;;;;;;3.75;2.20;;;8.40;99.90;;;;;;4972473;28;20034;-78
2024/03/12 07:05:29;;;;;;;4.78;2.25;;;8.40;99.90;;;;;;4972954;28;20030;-77
2024/03/12 07:07:55;;;;;;;3.13;1.80;;;8.40;99.90;;;;;;4973632;28;20066;-77
2024/03/12 07:10:22;;;;;;;4.18;2.08;;;8.40;99.90;;;;;;4973843;28;20511;-77
2024/03/12 07:12:48;;;;;;;4.85;2.42;;;8.50;99.90;;;;;;4973175;28;20465;-77
2024/03/12 07:15:14;;;;;;;3.72;2.00;;;8.40;99.90;;;;;;4973686;28;20088;-76
2024/03/12 07:17:39;;;;;;;4.00;2.15;;;8.50;99.90;;;;;;4972977;28;20022;-77
2024/03/12 07:20:10;;;;;;;4.97;1.83;;;8.50;99.90;;;;;;4974987;28;20400;-76
2024/03/12 07:22:37;;;;;;;3.83;1.90;;;8.50;99.90;;;;;;4973824;28;20042;-76
2024/03/12 07:25:05;;;;;;;2.85;1.85;;;8.50;99.90;;;;;;4974213;28;20372;-76
2024/03/12 07:27:31;;;;;;;3.53;2.20;;;8.60;99.90;;;;;;4973390;28;20063;-75
2024/03/12 07:29:58;;;;;;;6.68;2.13;;;8.50;99.90;;;;;;4972736;28;20091;-76
2024/03/12 07:32:24;;;;;;;2.90;1.77;;;8.50;99.90;;;;;;4972995;28;20491;-76
2024/03/12 07:34:49;;;;;;;3.33;1.90;;;8.50;99.90;;;;;;4982564;28;20054;-76
2024/03/12 07:37:17;;;;;;;2.97;2.00;;;8.60;99.90;;;;;;4992599;28;20091;-77
2024/03/12 07:39:43;;;;;;;4.78;1.90;;;8.60;99.90;;;;;;4992334;28;20056;-78
2024/03/12 07:42:18;;;;;;;3.97;1.90;;;8.60;99.90;;;;;;4994140;28;20427;-77
2024/03/12 07:44:47;;;;;;;3.70;1.98;;;8.60;99.90;;;;;;4992265;28;20029;-77
2024/03/12 07:47:15;;;;;;;2.90;1.60;;;8.60;99.90;;;;;;4992638;28;20034;-77
2024/03/12 07:49:41;;;;;;;5.63;1.95;;;8.70;99.90;;;;;;4992080;28;20084;-78
2024/03/12 07:52:09;;;;;;;3.03;1.55;;;8.70;99.90;;;;;;4993678;28;20046;-76
2024/03/12 07:54:35;;;;;;;1.98;1.60;;;8.70;99.90;;;;;;4992303;28;20513;-77
2024/03/12 07:57:01;;;;;;;2.00;1.48;;;8.80;99.90;;;;;;4991925;28;20034;-76
2024/03/12 07:59:28;;;;;;;2.78;1.85;;;8.80;99.90;;;;;;4993211;28;20423;-78
2024/03/12 08:01:57;;;;;;;5.93;1.85;;;8.80;99.90;;;;;;4991872;28;20034;-77
2024/03/12 08:04:25;;;;;;;2.72;1.77;;;8.80;99.90;;;;;;4992065;28;20058;-76
2024/03/12 08:06:50;;;;;;;3.15;1.90;;;8.80;99.90;;;;;;4991716;28;20034;-77
2024/03/12 08:09:18;;;;;;;2.10;1.48;;;8.80;99.90;;;;;;4993526;28;20030;-77
2024/03/12 08:11:47;;;;;;;3.50;2.13;;;8.80;99.90;;;;;;4991714;28;20038;-77
2024/03/12 08:14:13;;;;;;;4.60;1.98;;;8.80;99.90;;;;;;4991992;28;20173;-77
2024/03/12 08:16:40;;;;;;;4.20;1.90;;;8.90;99.90;;;;;;4992278;28;20361;-77
2024/03/12 08:19:05;;;;;;;4.45;2.17;;;8.90;99.90;;;;;;4991669;28;20170;-77
2024/03/12 08:21:32;;;;;;;4.03;1.90;;;8.90;99.90;;;;;;4992262;28;20496;-76
2024/03/12 08:23:58;;;;;;;3.80;2.08;;;8.80;99.90;;;;;;4991905;28;20130;-78
2024/03/12 08:26:26;;;;;;;3.70;1.80;;;8.90;99.90;;;;;;4992380;28;20034;-77
2024/03/12 08:28:52;;;;;;;3.78;2.30;;;8.90;99.90;;;;;;4991947;28;20022;-77
2024/03/12 08:31:19;;;;;;;4.03;2.40;;;9.00;99.90;;;;;;4992169;28;20130;-77
2024/03/12 08:33:45;;;;;;;6.00;2.00;;;9.00;99.90;;;;;;4991598;28;20026;-78
2024/03/12 08:36:10;;;;;;;4.15;2.30;;;8.90;99.90;;;;;;4992473;28;20368;-76
2024/03/12 08:38:36;;;;;;;4.68;2.13;;;8.90;99.90;;;;;;4992403;28;20038;-77
2024/03/12 08:41:02;;;;;;;5.68;2.30;;;9.00;99.90;;;;;;4991923;28;20390;-78
2024/03/12 08:43:28;;;;;;;4.35;2.17;;;9.00;99.90;;;;;;4993445;28;20030;-77
2024/03/12 08:45:54;;;;;;;7.22;3.35;;;9.10;99.90;;;;;;4991609;28;20052;-77
2024/03/12 08:48:21;;;;;;;4.78;2.33;;;9.10;99.90;;;;;;4992137;28;20030;-78
2024/03/12 08:50:47;;;;;;;8.07;2.75;;;9.20;99.90;;;;;;4992923;28;20038;-78
2024/03/12 08:53:12;;;;;;;5.82;2.97;;;9.20;99.90;;;;;;4992033;28;20382;-78
2024/03/12 08:55:38;;;;;;;6.40;3.00;;;9.30;99.90;;;;;;4992042;28;20036;-77
2024/03/12 08:58:07;;;;;;;5.95;2.95;;;9.30;99.90;;;;;;4991598;28;20557;-77
2024/03/12 09:00:32;;;;;;;6.13;3.38;;;9.30;99.90;;;;;;4991916;28;20034;-77
2024/03/12 09:02:59;;;;;;;6.28;3.20;;;9.40;99.90;;;;;;4991494;28;20023;-77
2024/03/12 09:05:25;;;;;;;7.60;2.63;;;9.50;99.90;;;;;;4991764;28;20383;-77
2024/03/12 09:07:50;;;;;;;5.63;2.78;;;9.50;99.90;;;;;;4991215;28;20034;-77
2024/03/12 09:10:16;;;;;;;5.93;2.90;;;9.60;99.90;;;;;;4991979;28;20077;-77
2024/03/12 09:12:42;;;;;;;4.50;2.67;;;9.60;99.90;;;;;;4992228;28;20211;-77
2024/03/12 09:15:09;;;;;;;6.32;3.00;;;9.70;99.90;;;;;;4992731;28;20109;-77
2024/03/12 09:17:38;;;;;;;5.85;3.45;;;9.70;99.90;;;;;;4995451;28;20081;-77
2024/03/12 09:20:10;;;;;;;6.90;3.05;;;9.70;99.90;;;;;;4995271;28;20077;-78
2024/03/12 09:22:39;;;;;;;5.15;2.88;;;9.70;99.90;;;;;;4996856;28;20026;-77
2024/03/12 09:25:05;;;;;;;6.75;3.20;;;9.90;99.90;;;;;;4995020;28;20026;-77
2024/03/12 09:27:33;;;;;;;8.52;3.78;;;9.90;99.90;;;;;;4996620;28;20034;-79
2024/03/12 09:30:00;;;;;;;6.63;3.72;;;10.00;99.90;;;;;;4995076;28;20383;-78
2024/03/12 09:32:25;;;;;;;7.88;3.17;;;9.90;99.90;;;;;;4996571;28;20041;-77
2024/03/12 09:34:54;;;;;;;7.50;3.80;;;9.90;99.90;;;;;;4995560;28;20050;-78
2024/03/12 09:37:19;;;;;;;8.23;3.70;;;9.90;99.90;;;;;;4996619;28;20034;-77
2024/03/12 09:39:45;;;;;;;8.13;4.25;;;9.90;99.90;;;;;;4995146;28;20045;-77
2024/03/12 09:42:15;;;;;;;7.40;3.58;;;9.80;99.90;;;;;;4994581;28;20057;-77
2024/03/12 09:44:41;;;;;;;7.50;3.53;;;9.90;99.90;;;;;;4995126;28;20032;-77
2024/03/12 09:47:08;;;;;;;7.32;3.72;;;9.90;99.90;;;;;;4994529;28;20022;-77
2024/03/12 09:49:35;;;;;;;7.60;4.05;;;9.90;99.90;;;;;;4994841;28;20033;-77
2024/03/12 09:52:05;;;;;;;9.18;3.53;;;9.90;99.90;;;;;;4994142;28;20395;-77
2024/03/12 09:54:31;;;;;;;7.65;3.40;;;9.90;99.90;;;;;;4995174;28;20030;-77
2024/03/12 09:56:58;;;;;;;6.30;3.72;;;9.90;99.90;;;;;;4994194;28;20073;-77
2024/03/12 09:59:25;;;;;;;7.68;3.85;;;9.90;99.90;;;;;;4995632;28;20029;-76
2024/03/12 10:01:51;;;;;;;6.82;3.65;;;9.90;99.90;;;;;;4993963;28;20065;-77
2024/03/12 10:04:17;;;;;;;7.13;3.20;;;9.90;99.90;;;;;;4995816;28;20103;-77
2024/03/12 10:06:43;;;;;;;7.22;3.60;;;10.00;99.90;;;;;;4995604;28;20026;-77
2024/03/12 10:09:15;;;;;;;6.93;3.75;;;9.90;99.90;;;;;;4993876;28;20041;-77
2024/03/12 10:11:45;;;;;;;6.70;3.78;;;9.80;99.90;;;;;;4994385;28;20034;-77
2024/03/12 10:14:17;;;;;;;7.15;3.80;;;9.80;99.90;;;;;;4993874;28;20030;-77
2024/03/12 10:16:43;;;;;;;;;;;9.80;99.90;;;;;;4994569;28;20459;-76
2024/03/12 10:19:11;;;;;;;6.93;3.40;;;9.80;99.90;;;;;;4993865;28;20073;-77
2024/03/12 10:21:37;;;;;;;8.65;3.63;;;9.80;99.90;;;;;;4995465;28;20034;-77
2024/03/12 10:24:10;;;;;;;10.63;3.60;;;9.80;99.90;;;;;;4993630;28;20079;-77
2024/03/12 10:26:35;;;;;;;6.88;3.83;;;9.70;99.90;;;;;;4994003;28;20031;-78
2024/03/12 10:29:09;;;;;;;6.78;3.30;;;9.70;99.90;;;;;;4994254;28;20032;-76
2024/03/12 10:31:44;;;;;;;8.35;3.45;;;9.70;99.90;;;;;;4995069;28;20125;-77
2024/03/12 10:34:13;;;;;;;7.22;3.30;;;9.60;99.90;;;;;;4994607;28;20053;-77
2024/03/12 10:36:42;;;;;;;8.48;4.40;;;9.60;99.90;;;;;;4993556;28;20490;-78
2024/03/12 10:39:12;;;;;;;7.78;4.03;;;9.60;99.90;;;;;;4994653;28;20349;-77
2024/03/12 10:41:38;;;;;;;6.85;3.60;;;9.50;99.90;;;;;;4995143;28;20113;-77
2024/03/12 10:44:13;;;;;;;9.60;4.32;;;9.50;99.90;;;;;;4994543;28;20031;-77
2024/03/12 10:46:44;;;;;;;8.52;4.20;;;9.60;99.90;;;;;;4993916;28;20029;-77
2024/03/12 10:49:12;;;;;;;9.45;4.10;;;9.60;99.90;;;;;;4993112;28;20100;-77
2024/03/12 10:51:42;;;;;;;10.05;4.50;;;9.60;99.90;;;;;;4993512;28;20049;-77
2024/03/12 10:54:21;;;;;;;8.30;4.47;;;9.60;99.90;;;;;;4994160;28;20053;-77
2024/03/12 10:56:47;;;;;;;9.85;4.88;;;9.60;99.90;;;;;;4993717;28;20033;-77
2024/03/12 10:59:16;;;;;;;9.90;5.10;;;9.60;99.90;;;;;;4994095;28;20041;-77
2024/03/12 11:01:47;;;;;;;10.07;4.68;;;9.70;99.90;;;;;;4993091;28;20038;-77
2024/03/12 11:04:14;;;;;;;11.55;5.50;;;9.70;99.90;;;;;;4992562;28;20058;-77
2024/03/12 11:06:40;;;;;;;11.23;5.40;;;9.70;99.90;;;;;;4993073;28;20479;-77
2024/03/12 11:09:12;;;;;;;12.30;5.43;;;9.80;99.90;;;;;;4992489;28;20034;-77
2024/03/12 11:11:38;;;;;;;13.05;5.68;;;9.80;99.90;;;;;;4993205;28;20038;-77
2024/03/12 11:14:05;;;;;;;13.00;5.30;;;9.70;99.90;;;;;;4993907;28;20037;-77
2024/03/12 11:16:35;;;;;;;10.82;5.40;;;9.70;99.90;;;;;;4993030;28;20026;-77
2024/03/12 11:19:23;;;;;;;14.73;6.00;;;9.70;99.90;;;;;;4992535;28;20030;-77
2024/03/12 11:21:51;;;;;;;12.30;5.85;;;9.70;99.90;;;;;;4994120;28;20026;-77
2024/03/12 11:24:27;;;;;;;11.88;5.80;;;9.70;99.90;;;;;;4992470;28;20112;-77
2024/03/12 11:26:53;;;;;;;13.88;5.85;;;9.70;99.90;;;;;;4993067;28;20037;-76
2024/03/12 11:29:18;;;;;;;14.15;6.25;;;9.70;99.90;;;;;;4992456;28;20022;-77
2024/03/12 11:31:44;;;;;;;12.98;5.20;;;9.70;99.90;;;;;;4993885;28;20137;-77
2024/03/12 11:34:11;;;;;;;13.43;6.32;;;9.80;99.90;;;;;;4991805;28;20055;-77
2024/03/12 11:36:39;;;;;;;13.95;6.95;;;9.70;99.90;;;;;;4992448;28;20030;-77
2024/03/12 11:39:15;;;;;;;13.52;6.40;;;9.80;99.90;;;;;;4991215;28;20027;-77
2024/03/12 11:42:08;;;;;;;14.40;6.70;;;9.80;99.90;;;;;;4992706;28;20030;-77
2024/03/12 11:44:54;;;;;;;13.70;6.57;;;9.80;99.90;;;;;;4992765;28;20368;-77
2024/03/12 11:47:42;;;;;;;17.17;7.32;;;9.90;99.90;;;;;;4992755;28;20490;-78
2024/03/12 11:50:32;;;;;;;16.45;7.68;;;9.90;99.90;;;;;;4992095;28;20077;-77
2024/03/12 11:53:14;;;;;;;17.35;7.78;;;9.90;99.90;;;;;;4993315;28;20030;-78
2024/03/12 11:56:10;;;;;;;20.27;8.07;;;9.90;99.90;;;;;;4993744;28;20022;-76
2024/03/12 11:58:49;;;;;;;15.95;7.13;;;9.90;99.90;;;;;;4992904;28;20432;-78
2024/03/12 12:01:21;;;;;;;19.83;7.88;;;9.80;99.90;;;;;;4992068;28;20730;-77
2024/03/12 12:03:54;;;;;;;;;;;9.80;99.90;;;;;;4992970;28;20052;-77
2024/03/12 12:06:20;;;;;;;24.27;8.05;;;9.90;99.90;;;;;;4991976;28;19917;-77
2024/03/12 12:08:47;;;;;;;23.35;9.38;;;9.90;99.90;;;;;;4992259;28;20031;-76
2024/03/12 12:11:15;;;;;;;18.13;9.02;;;10.00;99.90;;;;;;4991393;28;20038;-77
2024/03/12 12:13:42;;;;;;;22.55;9.40;;;10.10;99.90;;;;;;4992193;28;20130;-76
2024/03/12 12:16:14;;;;;;;20.88;9.00;;;10.10;99.90;;;;;;4991802;28;20121;-77
2024/03/12 12:18:40;;;;;;;19.65;8.20;;;10.10;99.90;;;;;;4992257;28;20106;-77
2024/03/12 12:21:16;;;;;;;22.88;10.07;;;10.00;99.90;;;;;;4991751;28;20082;-77
2024/03/12 12:23:46;;;;;;;20.40;9.15;;;10.00;99.90;;;;;;4992253;28;20031;-77
2024/03/12 12:26:20;;;;;;;18.67;8.98;;;10.00;99.90;;;;;;4991776;28;20029;-77
2024/03/12 12:28:46;;;;;;;22.00;9.85;;;10.00;99.90;;;;;;4993522;28;20033;-76
2024/03/12 12:31:16;;;;;;;20.95;9.13;;;10.00;99.90;;;;;;4991688;28;20030;-77
2024/03/12 12:33:46;;;;;;;22.77;10.27;;;10.00;99.90;;;;;;4991867;28;20117;-77
2024/03/12 12:36:13;;;;;;;26.30;11.20;;;10.00;99.90;;;;;;4991816;28;20027;-77
2024/03/12 12:38:43;;;;;;;26.98;11.52;;;10.10;99.90;;;;;;4991955;28;20029;-77
2024/03/12 12:41:13;;;;;;;27.83;11.27;;;10.30;99.90;;;;;;4991775;28;20030;-77
2024/03/12 12:43:40;;;;;;;28.17;11.15;;;10.50;99.90;;;;;;4992135;28;20026;-77
2024/03/12 12:46:16;;;;;;;28.52;11.52;;;10.60;99.90;;;;;;4991679;28;20049;-77
2024/03/12 12:48:42;;;;;;;35.08;12.48;;;10.60;99.90;;;;;;4991929;28;20026;-76
2024/03/12 12:51:10;;;;;;;31.52;12.73;;;10.60;99.90;;;;;;4992935;28;20172;-77
2024/03/12 12:53:36;;;;;;;31.27;12.57;;;10.60;99.90;;;;;;4996951;28;20023;-77
2024/03/12 12:56:02;;;;;;;31.23;12.43;;;10.60;99.90;;;;;;4996381;28;20030;-77
2024/03/12 12:58:33;;;;;;;34.50;12.95;;;10.40;99.90;;;;;;4996570;28;20396;-77
2024/03/12 13:01:06;;;;;;;31.23;12.90;;;10.30;99.90;;;;;;4996643;28;20026;-87
2024/03/12 13:03:38;;;;;;;28.65;12.23;;;10.30;99.90;;;;;;4996463;28;20030;-77
2024/03/12 13:06:15;;;;;;;29.23;12.35;;;10.30;99.90;;;;;;4995222;28;20170;-77